Observation data for Hereford on 10/17/2019      Previous  Date       Current Mesonet Observations  Soil Data  Daily Summary Page  Observations in Plain Language
KHES 170500Z 22008KT 10/00 A3011 RMK A01 T01020001  RH  050%=      5-min Rain = 0
KHES 170505Z 22008KT 10/00 A3011 RMK A01 T00990002  RH  051%=      5-min Rain = 0
KHES 170510Z 22008KT 10/00 A3011 RMK A01 T00980002  RH  052%=      5-min Rain = 0
KHES 170515Z 22008KT 10/00 A3011 RMK A01 T00970002  RH  052%=      5-min Rain = 0
KHES 170520Z 21008KT 10/00 A3011 RMK A01 T00960002  RH  053%=      5-min Rain = 0
KHES 170525Z 21008KT 10/00 A301 RMK A01 T00960002  RH  052%=      5-min Rain = 0
KHES 170530Z 21008KT 10/00 A301 RMK A01 T00950003  RH  053%=      5-min Rain = 0
KHES 170535Z 21008KT 09/00 A301 RMK A01 T00940003  RH  053%=      5-min Rain = 0
KHES 170540Z 21008KT 09/00 A301 RMK A01 T00930002  RH  054%=      5-min Rain = 0
KHES 170545Z 21008KT 09/00 A301 RMK A01 T00920002  RH  054%=      5-min Rain = 0
KHES 170550Z 21007KT 09/00 A301 RMK A01 T00910003  RH  055%=      5-min Rain = 0
KHES 170555Z 22007KT 09/00 A301 RMK A01 T00910003  RH  055%=      5-min Rain = 0
KHES 170600Z 22008KT 09/00 A3009 RMK A01 T00900003  RH  055%=      5-min Rain = 0
KHES 170605Z 22008KT 09/00 A3009 RMK A01 T00900003  RH  055%=      5-min Rain = 0
KHES 170610Z 22007KT 09/00 A3009 RMK A01 T00880003  RH  056%=      5-min Rain = 0
KHES 170615Z 21008KT 09/00 A3009 RMK A01 T00870004  RH  057%=      5-min Rain = 0
KHES 170620Z 21008KT 09/00 A3009 RMK A01 T00860004  RH  057%=      5-min Rain = 0
KHES 170625Z 22007KT 09/00 A3009 RMK A01 T00850004  RH  058%=      5-min Rain = 0
KHES 170630Z 21008KT 08/00 A3009 RMK A01 T00830004  RH  058%=      5-min Rain = 0
KHES 170635Z 21007KT 08/01 A3008 RMK A01 T00820005  RH  059%=      5-min Rain = 0
KHES 170640Z 21007KT 08/01 A3008 RMK A01 T00810005  RH  059%=      5-min Rain = 0
KHES 170645Z 21007KT 08/01 A3008 RMK A01 T00790005  RH  060%=      5-min Rain = 0
KHES 170650Z 21007KT 08/01 A3008 RMK A01 T00780005  RH  061%=      5-min Rain = 0
KHES 170655Z 21007KT 08/01 A3008 RMK A01 T00780005  RH  061%=      5-min Rain = 0
KHES 170700Z 21007KT 08/01 A3008 RMK A01 T00790006  RH  061%=      5-min Rain = 0
KHES 170705Z 20007KT 08/01 A3008 RMK A01 T00760006  RH  062%=      5-min Rain = 0
KHES 170710Z 21007KT 08/01 A3008 RMK A01 T00760006  RH  062%=      5-min Rain = 0
KHES 170715Z 21007KT 08/01 A3008 RMK A01 T00750005  RH  062%=      5-min Rain = 0
KHES 170720Z 21007KT 08/01 A3008 RMK A01 T00750005  RH  062%=      5-min Rain = 0
KHES 170725Z 21007KT 08/01 A3008 RMK A01 T00750005  RH  062%=      5-min Rain = 0
KHES 170730Z 21008KT 08/01 A3008 RMK A01 T00760005  RH  062%=      5-min Rain = 0
KHES 170735Z 21008KT 08/01 A3008 RMK A01 T00760005  RH  062%=      5-min Rain = 0
KHES 170740Z 21008KT 08/01 A3007 RMK A01 T00760005  RH  062%=      5-min Rain = 0
KHES 170745Z 21007KT 08/01 A3007 RMK A01 T00760005  RH  062%=      5-min Rain = 0
KHES 170750Z 22008KT 08/01 A3007 RMK A01 T00770006  RH  061%=      5-min Rain = 0
KHES 170755Z 22007KT 08/01 A3007 RMK A01 T00770006  RH  061%=      5-min Rain = 0
KHES 170800Z 22007KT 08/01 A3007 RMK A01 T00770005  RH  061%=      5-min Rain = 0
KHES 170805Z 22007KT 08/01 A3008 RMK A01 T00760005  RH  062%=      5-min Rain = 0
KHES 170810Z 22007KT 07/01 A3007 RMK A01 T00740005  RH  063%=      5-min Rain = 0
KHES 170815Z 22008KT 08/01 A3007 RMK A01 T00760006  RH  062%=      5-min Rain = 0
KHES 170820Z 22009KT 08/01 A3007 RMK A01 T00780006  RH  061%=      5-min Rain = 0
KHES 170825Z 22009KT 08/01 A3007 RMK A01 T00770006  RH  061%=      5-min Rain = 0
KHES 170830Z 21008KT 08/01 A3007 RMK A01 T00760006  RH  062%=      5-min Rain = 0
KHES 170835Z 21008KT 08/01 A3007 RMK A01 T00770007  RH  062%=      5-min Rain = 0
KHES 170840Z 21009KT 08/01 A3007 RMK A01 T00770007  RH  062%=      5-min Rain = 0
KHES 170845Z 21008KT 08/01 A3007 RMK A01 T00770007  RH  062%=      5-min Rain = 0
KHES 170850Z 20009KT 08/01 A3006 RMK A01 T00770007  RH  062%=      5-min Rain = 0
KHES 170855Z 20009KT 08/01 A3006 RMK A01 T00780007  RH  062%=      5-min Rain = 0
KHES 170900Z 21008KT 08/01 A3006 RMK A01 T00790007  RH  061%=      5-min Rain = 0
KHES 170905Z 22009KT 08/01 A3006 RMK A01 T00790007  RH  061%=      5-min Rain = 0
KHES 170910Z 23008KT 08/01 A3006 RMK A01 T00770007  RH  062%=      5-min Rain = 0
KHES 170915Z 24008KT 07/01 A3007 RMK A01 T00720007  RH  064%=      5-min Rain = 0
KHES 170920Z 24009KT 07/01 A3006 RMK A01 T00710007  RH  065%=      5-min Rain = 0
KHES 170925Z 22008KT 07/01 A3006 RMK A01 T00720008  RH  064%=      5-min Rain = 0
KHES 170930Z 22008KT 07/01 A3006 RMK A01 T00710008  RH  065%=      5-min Rain = 0
KHES 170935Z 23007KT 07/01 A3006 RMK A01 T00690007  RH  066%=      5-min Rain = 0
KHES 170940Z 22007KT 07/01 A3005 RMK A01 T00670007  RH  066%=      5-min Rain = 0
KHES 170945Z 22007KT 07/01 A3005 RMK A01 T00670007  RH  066%=      5-min Rain = 0
KHES 170950Z 22007KT 07/01 A3005 RMK A01 T00660007  RH  067%=      5-min Rain = 0
KHES 170955Z 22007KT 07/01 A3005 RMK A01 T00670007  RH  067%=      5-min Rain = 0
KHES 171000Z 22009KT 07/01 A3004 RMK A01 T00690007  RH  065%=      5-min Rain = 0
KHES 171005Z 22009KT 07/01 A3004 RMK A01 T00720008  RH  064%=      5-min Rain = 0
KHES 171010Z 22009KT 07/01 A3004 RMK A01 T00740007  RH  063%=      5-min Rain = 0
KHES 171015Z 22008KT 07/01 A3004 RMK A01 T00740007  RH  063%=      5-min Rain = 0
KHES 171020Z 22007KT 07/01 A3004 RMK A01 T00720007  RH  064%=      5-min Rain = 0
KHES 171025Z 22009KT 07/01 A3004 RMK A01 T00710007  RH  065%=      5-min Rain = 0
KHES 171030Z 22008KT 07/01 A3004 RMK A01 T00700007  RH  065%=      5-min Rain = 0
KHES 171035Z 22008KT 07/01 A3004 RMK A01 T00680008  RH  066%=      5-min Rain = 0
KHES 171040Z 23009KT 07/01 A3004 RMK A01 T00690007  RH  066%=      5-min Rain = 0
KHES 171045Z 24008KT 07/01 A3004 RMK A01 T00680008  RH  066%=      5-min Rain = 0
KHES 171050Z 23009KT 07/01 A3004 RMK A01 T00670008  RH  067%=      5-min Rain = 0
KHES 171055Z 23008KT 07/01 A3004 RMK A01 T00660008  RH  067%=      5-min Rain = 0
KHES 171100Z 24008KT 06/01 A3004 RMK A01 T00640007  RH  068%=      5-min Rain = 0
KHES 171105Z 24008KT 06/01 A3004 RMK A01 T00630007  RH  068%=      5-min Rain = 0
KHES 171110Z 24008KT 06/01 A3004 RMK A01 T00620007  RH  069%=      5-min Rain = 0
KHES 171115Z 23008KT 06/01 A3003 RMK A01 T00620007  RH  069%=      5-min Rain = 0
KHES 171120Z 22008KT 07/01 A3003 RMK A01 T00650008  RH  068%=      5-min Rain = 0
KHES 171125Z 21007KT 06/01 A3003 RMK A01 T00620007  RH  069%=      5-min Rain = 0
KHES 171130Z 21008KT 06/01 A3003 RMK A01 T00630008  RH  068%=      5-min Rain = 0
KHES 171135Z 22008KT 06/01 A3002 RMK A01 T00620008  RH  069%=      5-min Rain = 0
KHES 171140Z 22009KT 07/01 A3002 RMK A01 T00660010  RH  068%=      5-min Rain = 0
KHES 171145Z 24010KT 07/01 A3002 RMK A01 T00710011  RH  067%=      5-min Rain = 0
KHES 171150Z 25009KT 07/01 A3003 RMK A01 T00670010  RH  068%=      5-min Rain = 0
KHES 171155Z 26008KT 06/01 A3003 RMK A01 T00610009  RH  070%=      5-min Rain = 0
KHES 171200Z 24008KT 06/01 A3003 RMK A01 T00570009  RH  072%=      5-min Rain = 0
KHES 171205Z 24008KT 06/01 A3002 RMK A01 T00620012  RH  071%=      5-min Rain = 0
KHES 171210Z 25009KT 06/01 A3002 RMK A01 T00630012  RH  071%=      5-min Rain = 0
KHES 171215Z 24008KT 06/01 A3002 RMK A01 T00620012  RH  072%=      5-min Rain = 0
KHES 171220Z 24008KT 06/01 A3002 RMK A01 T00640013  RH  071%=      5-min Rain = 0
KHES 171225Z 23009KT 07/01 A3002 RMK A01 T00680013  RH  069%=      5-min Rain = 0
KHES 171230Z 24010KT 07/01 A3002 RMK A01 T00720012  RH  067%=      5-min Rain = 0
KHES 171235Z 25010KT 07/01 A3002 RMK A01 T00690011  RH  068%=      5-min Rain = 0
KHES 171240Z 25009KT 07/01 A3002 RMK A01 T00660011  RH  069%=      5-min Rain = 0
KHES 171245Z 25009KT 06/01 A3002 RMK A01 T00640011  RH  070%=      5-min Rain = 0
KHES 171250Z 25008KT 06/01 A3002 RMK A01 T00640010  RH  069%=      5-min Rain = 0
KHES 171255Z 25008KT 06/01 A3002 RMK A01 T00610010  RH  070%=      5-min Rain = 0
KHES 171300Z 24007KT 06/01 A3002 RMK A01 T00600010  RH  071%=      5-min Rain = 0
KHES 171305Z 24008KT 06/01 A3002 RMK A01 T00610009  RH  070%=      5-min Rain = 0
KHES 171310Z 23008KT 06/01 A3002 RMK A01 T00630010  RH  069%=      5-min Rain = 0
KHES 171315Z 23008KT 06/01 A3002 RMK A01 T00620010  RH  070%=      5-min Rain = 0
KHES 171320Z 24008KT 06/01 A3002 RMK A01 T00620010  RH  070%=      5-min Rain = 0
KHES 171325Z 24008KT 07/01 A3002 RMK A01 T00650011  RH  069%=      5-min Rain = 0
KHES 171330Z 24008KT 07/01 A3002 RMK A01 T00680012  RH  068%=      5-min Rain = 0
KHES 171335Z 24007KT 07/01 A3002 RMK A01 T00700013  RH  068%=      5-min Rain = 0
KHES 171340Z 23008KT 07/02 A3003 RMK A01 T00730015  RH  067%=      5-min Rain = 0
KHES 171345Z 22006KT 07/02 A3003 RMK A01 T00730016  RH  068%=      5-min Rain = 0
KHES 171350Z 22006KT 07/02 A3003 RMK A01 T00740016  RH  067%=      5-min Rain = 0
KHES 171355Z 22005KT 08/02 A3003 RMK A01 T00770017  RH  067%=      5-min Rain = 0
KHES 171400Z 21006KT 08/02 A3003 RMK A01 T00810020  RH  066%=      5-min Rain = 0
KHES 171405Z 22006KT 09/02 A3003 RMK A01 T00860022  RH  065%=      5-min Rain = 0
KHES 171410Z 22007KT 09/02 A3003 RMK A01 T00910023  RH  063%=      5-min Rain = 0
KHES 171415Z 22007KT 10/03 A3003 RMK A01 T00960025  RH  062%=      5-min Rain = 0
KHES 171420Z 22008KT 10/03 A3003 RMK A01 T01010026  RH  060%=      5-min Rain = 0
KHES 171425Z 23009KT 11/03 A3003 RMK A01 T01070028  RH  059%=      5-min Rain = 0
KHES 171430Z 22009KT 11/03 A3003 RMK A01 T01130028  RH  057%=      5-min Rain = 0
KHES 171435Z 23010KT 12/03 A3003 RMK A01 T01160028  RH  056%=      5-min Rain = 0
KHES 171440Z 23010KT 12/03 A3003 RMK A01 T01210030  RH  055%=      5-min Rain = 0
KHES 171445Z 23009KT 13/03 A3003 RMK A01 T01270032  RH  053%=      5-min Rain = 0
KHES 171450Z 23010KT 14/03 A3003 RMK A01 T01360034  RH  051%=      5-min Rain = 0
KHES 171455Z 23012KT 14/03 A3003 RMK A01 T01400030  RH  048%=      5-min Rain = 0
KHES 171500Z 22012KT 14/03 A3004 RMK A01 T01440031  RH  047%=      5-min Rain = 0
KHES 171505Z 22010KT 15/03 A3003 RMK A01 T01470033  RH  047%=      5-min Rain = 0
KHES 171510Z 22011KT 15/03 A3003 RMK A01 T01480033  RH  047%=      5-min Rain = 0
KHES 171515Z 22009KT 15/04 A3003 RMK A01 T01510036  RH  047%=      5-min Rain = 0
KHES 171520Z 22011KT 15/03 A3003 RMK A01 T01530034  RH  046%=      5-min Rain = 0
KHES 171525Z 22011KT 16/04 A3003 RMK A01 T01550035  RH  045%=      5-min Rain = 0
KHES 171530Z 22010KT 16/04 A3003 RMK A01 T01580037  RH  045%=      5-min Rain = 0
KHES 171535Z 22011KT 16/04 A3003 RMK A01 T01620037  RH  044%=      5-min Rain = 0
KHES 171540Z 22011KT 16/04 A3003 RMK A01 T01640038  RH  044%=      5-min Rain = 0
KHES 171545Z 22011KT 17/04 A3003 RMK A01 T01660036  RH  042%=      5-min Rain = 0
KHES 171550Z 22011G16KT 17/04 A3002 RMK A01 T01720037  RH  042%=      5-min Rain = 0
KHES 171555Z 22011G16KT 17/04 A3002 RMK A01 T01740038  RH  041%=      5-min Rain = 0
KHES 171600Z 22013KT 18/04 A3002 RMK A01 T01770037  RH  040%=      5-min Rain = 0
KHES 171605Z 22012KT 18/04 A3002 RMK A01 T01820040  RH  040%=      5-min Rain = 0
KHES 171610Z 22011KT 19/04 A3001 RMK A01 T01850044  RH  040%=      5-min Rain = 0
KHES 171615Z 21010KT 18/05 A3001 RMK A01 T01840048  RH  042%=      5-min Rain = 0
KHES 171620Z 21011G16KT 18/05 A3001 RMK A01 T01840047  RH  041%=      5-min Rain = 0
KHES 171625Z 21011KT 19/05 A3001 RMK A01 T01860049  RH  041%=      5-min Rain = 0
KHES 171630Z 22011KT 19/05 A3001 RMK A01 T01890047  RH  040%=      5-min Rain = 0
KHES 171635Z 21011KT 19/05 A30 RMK A01 T01910047  RH  040%=      5-min Rain = 0
KHES 171640Z 22010G15KT 20/05 A30 RMK A01 T01960049  RH  039%=      5-min Rain = 0
KHES 171645Z 22011KT 20/05 A30 RMK A01 T01990045  RH  037%=      5-min Rain = 0
KHES 171650Z 23012KT 20/04 A30 RMK A01 T02010042  RH  036%=      5-min Rain = 0
KHES 171655Z 23011KT 21/04 A30 RMK A01 T02060042  RH  035%=      5-min Rain = 0
KHES 171700Z 23012G17KT 21/04 A30 RMK A01 T02090042  RH  034%=      5-min Rain = 0
KHES 171705Z 23012KT 21/04 A2999 RMK A01 T02110041  RH  033%=      5-min Rain = 0
KHES 171710Z 23013G18KT 22/04 A2999 RMK A01 T02150038  RH  032%=      5-min Rain = 0
KHES 171715Z 23013KT 22/04 A2999 RMK A01 T02180037  RH  031%=      5-min Rain = 0
KHES 171720Z 23011KT 22/04 A2999 RMK A01 T02220041  RH  031%=      5-min Rain = 0
KHES 171725Z 22011KT 22/04 A2999 RMK A01 T02230044  RH  032%=      5-min Rain = 0
KHES 171730Z 22012G17KT 23/04 A2999 RMK A01 T02250041  RH  031%=      5-min Rain = 0
KHES 171735Z 21011G16KT 22/04 A2999 RMK A01 T02240042  RH  031%=      5-min Rain = 0
KHES 171740Z 21013KT 22/04 A2999 RMK A01 T02240041  RH  031%=      5-min Rain = 0
KHES 171745Z 21012KT 22/04 A2998 RMK A01 T02240039  RH  030%=      5-min Rain = 0
KHES 171750Z 22012G17KT 23/04 A2998 RMK A01 T02270038  RH  030%=      5-min Rain = 0
KHES 171755Z 22013G18KT 23/04 A2998 RMK A01 T02310037  RH  029%=      5-min Rain = 0
KHES 171800Z 22012G17KT 23/03 A2997 RMK A01 T02330031  RH  027%=      5-min Rain = 0
KHES 171805Z 21014KT 23/03 A2997 RMK A01 T02330032  RH  027%=      5-min Rain = 0
KHES 171810Z 21013KT 24/03 A2997 RMK A01 T02350030  RH  027%=      5-min Rain = 0
KHES 171815Z 21013G18KT 23/02 A2996 RMK A01 T02340022  RH  025%=      5-min Rain = 0
KHES 171820Z 21014G19KT 24/02 A2996 RMK A01 T02380019  RH  024%=      5-min Rain = 0
KHES 171825Z 22016KT 24/00 A2996 RMK A01 T023800-0  RH  021%=      5-min Rain = 0
KHES 171830Z 22014G20KT 24/01 A2995 RMK A01 T02420005  RH  021%=      5-min Rain = 0
KHES 171835Z 22015G20KT 24/00 A2995 RMK A01 T02410003  RH  021%=      5-min Rain = 0
KHES 171840Z 21012G19KT 24/01 A2995 RMK A01 T02420012  RH  022%=      5-min Rain = 0
KHES 171845Z 22014KT 25/01 A2994 RMK A01 T02450009  RH  021%=      5-min Rain = 0
KHES 171850Z 20012KT 25/02 A2994 RMK A01 T02450022  RH  024%=      5-min Rain = 0
KHES 171855Z 20013G19KT 24/02 A2994 RMK A01 T02430018  RH  023%=      5-min Rain = 0
KHES 171900Z 21013G19KT 24/02 A2994 RMK A01 T02430019  RH  024%=      5-min Rain = 0
KHES 171905Z 20014KT 24/01 A2994 RMK A01 T02430014  RH  023%=      5-min Rain = 0
KHES 171910Z 20013G19KT 24/02 A2993 RMK A01 T02430015  RH  023%=      5-min Rain = 0
KHES 171915Z 20012G19KT 25/02 A2993 RMK A01 T02450019  RH  023%=      5-min Rain = 0
KHES 171920Z 21013G20KT 25/01 A2992 RMK A01 T02460010  RH  022%=      5-min Rain = 0
KHES 171925Z 20012KT 25/01 A2992 RMK A01 T02480014  RH  022%=      5-min Rain = 0
KHES 171930Z 22013G18KT 25/01 A2992 RMK A01 T02490011  RH  021%=      5-min Rain = 0
KHES 171935Z 21015G22KT 25/01 A2992 RMK A01 T02490007  RH  021%=      5-min Rain = 0
KHES 171940Z 20013G18KT 25/01 A2991 RMK A01 T02480013  RH  022%=      5-min Rain = 0
KHES 171945Z 19015G20KT 25/01 A2991 RMK A01 T02470014  RH  022%=      5-min Rain = 0
KHES 171950Z 20013G18KT 25/02 A299 RMK A01 T02500018  RH  022%=      5-min Rain = 0
KHES 171955Z 20014KT 25/02 A299 RMK A01 T02510015  RH  022%=      5-min Rain = 0
KHES 172000Z 20014G20KT 25/01 A299 RMK A01 T02450013  RH  022%=      5-min Rain = 0
KHES 172005Z 21014G23KT 25/01 A299 RMK A01 T02470007  RH  021%=      5-min Rain = 0
KHES 172010Z 19014G19KT 24/01 A2989 RMK A01 T02440010  RH  022%=      5-min Rain = 0
KHES 172015Z 19013G20KT 24/01 A2989 RMK A01 T02430013  RH  022%=      5-min Rain = 0
KHES 172020Z 21014G19KT 25/01 A2989 RMK A01 T02460009  RH  021%=      5-min Rain = 0
KHES 172025Z 19013G18KT 24/01 A2989 RMK A01 T02410009  RH  022%=      5-min Rain = 0
KHES 172030Z 18015G20KT 24/01 A2988 RMK A01 T02440009  RH  022%=      5-min Rain = 0
KHES 172035Z 20012KT 25/01 A2988 RMK A01 T02520007  RH  020%=      5-min Rain = 0
KHES 172040Z 20013G19KT 26/00 A2987 RMK A01 T02560004  RH  019%=      5-min Rain = 0
KHES 172045Z 20016G21KT 26/M01 A2987 RMK A01 T02561005  RH  018%=      5-min Rain = 0
KHES 172050Z 20013G19KT 26/M00 A2987 RMK A01 T02561001  RH  019%=      5-min Rain = 0
KHES 172055Z 19015G20KT 26/M00 A2987 RMK A01 T02561001  RH  019%=      5-min Rain = 0
KHES 172100Z 20014G21KT 25/M01 A2986 RMK A01 T02521009  RH  018%=      5-min Rain = 0
KHES 172105Z 20015G20KT 25/M01 A2986 RMK A01 T02481014  RH  018%=      5-min Rain = 0
KHES 172110Z 19014G20KT 25/M01 A2986 RMK A01 T02481006  RH  019%=      5-min Rain = 0
KHES 172115Z 20015G21KT 25/M01 A2986 RMK A01 T02531005  RH  018%=      5-min Rain = 0
KHES 172120Z 20015G21KT 25/M01 A2986 RMK A01 T02531011  RH  018%=      5-min Rain = 0
KHES 172125Z 20014G22KT 26/M01 A2985 RMK A01 T02601005  RH  018%=      5-min Rain = 0
KHES 172130Z 20016G22KT 26/M01 A2985 RMK A01 T02641014  RH  016%=      5-min Rain = 0
KHES 172135Z 20015G22KT 26/M01 A2985 RMK A01 T02631012  RH  017%=      5-min Rain = 0
KHES 172140Z 20016G21KT 26/M01 A2985 RMK A01 T02641014  RH  016%=      5-min Rain = 0
KHES 172145Z 20015G24KT 26/M01 A2985 RMK A01 T02621012  RH  017%=      5-min Rain = 0
KHES 172150Z 20015G21KT 26/M01 A2985 RMK A01 T02611014  RH  016%=      5-min Rain = 0
KHES 172155Z 20015G21KT 26/M02 A2985 RMK A01 T02581020  RH  016%=      5-min Rain = 0
KHES 172200Z 19015G20KT 26/M02 A2985 RMK A01 T02571018  RH  016%=      5-min Rain = 0
KHES 172205Z 19015G20KT 26/M02 A2985 RMK A01 T02581017  RH  016%=      5-min Rain = 0
KHES 172210Z 19015G22KT 26/M02 A2984 RMK A01 T02601021  RH  016%=      5-min Rain = 0
KHES 172215Z 19016G21KT 26/M02 A2984 RMK A01 T02561024  RH  016%=      5-min Rain = 0
KHES 172220Z 19014G20KT 26/M02 A2984 RMK A01 T02551022  RH  016%=      5-min Rain = 0
KHES 172225Z 20014G22KT 26/M02 A2984 RMK A01 T02581018  RH  016%=      5-min Rain = 0
KHES 172230Z 20015G20KT 26/M03 A2984 RMK A01 T02571025  RH  015%=      5-min Rain = 0
KHES 172235Z 19014G21KT 26/M01 A2984 RMK A01 T02581013  RH  017%=      5-min Rain = 0
KHES 172240Z 19013G18KT 26/M01 A2984 RMK A01 T02581009  RH  017%=      5-min Rain = 0
KHES 172245Z 19014G19KT 25/M01 A2984 RMK A01 T02531010  RH  018%=      5-min Rain = 0
KHES 172250Z 19011G17KT 25/M01 A2984 RMK A01 T02491005  RH  019%=      5-min Rain = 0
KHES 172255Z 19012G17KT 25/M01 A2984 RMK A01 T02451008  RH  019%=      5-min Rain = 0
KHES 172300Z 19010G16KT 24/M01 A2983 RMK A01 T02441005  RH  020%=      5-min Rain = 0
KHES 172305Z 19011G16KT 24/M01 A2983 RMK A01 T02411005  RH  020%=      5-min Rain = 0
KHES 172310Z 19009KT 24/M00 A2983 RMK A01 T02421003  RH  020%=      5-min Rain = 0
KHES 172315Z 18011G17KT 24/M01 A2983 RMK A01 T02431006  RH  020%=      5-min Rain = 0
KHES 172320Z 19011KT 24/M01 A2983 RMK A01 T02391008  RH  020%=      5-min Rain = 0
KHES 172325Z 19010KT 24/M01 A2983 RMK A01 T02371009  RH  020%=      5-min Rain = 0
KHES 172330Z 19010KT 23/M01 A2983 RMK A01 T02341009  RH  020%=      5-min Rain = 0
KHES 172335Z 19011KT 23/M01 A2983 RMK A01 T02321012  RH  020%=      5-min Rain = 0
KHES 172340Z 19011KT 23/M01 A2982 RMK A01 T02301013  RH  020%=      5-min Rain = 0
KHES 172345Z 19009KT 23/M01 A2982 RMK A01 T02271012  RH  021%=      5-min Rain = 0
KHES 172350Z 19009KT 23/M01 A2983 RMK A01 T02251011  RH  021%=      5-min Rain = 0
KHES 172355Z 19009KT 22/M01 A2983 RMK A01 T02221009  RH  022%=      5-min Rain = 0
KHES 180000Z 18007KT 22/M01 A2982 RMK A01 T02161005  RH  023%=      5-min Rain = 0
KHES 180005Z 18007KT 21/M01 A2982 RMK A01 T02111005  RH  024%=      5-min Rain = 0
KHES 180010Z 18007KT 21/M01 A2982 RMK A01 T02071005  RH  024%=      5-min Rain = 0
KHES 180015Z 18008KT 20/M01 A2982 RMK A01 T02031007  RH  025%=      5-min Rain = 0
KHES 180020Z 18008KT 20/M01 A2982 RMK A01 T02001008  RH  025%=      5-min Rain = 0
KHES 180025Z 19008KT 20/M01 A2983 RMK A01 T01981009  RH  025%=      5-min Rain = 0
KHES 180030Z 19008KT 20/M01 A2983 RMK A01 T01991009  RH  025%=      5-min Rain = 0
KHES 180035Z 19008KT 20/M01 A2983 RMK A01 T01971008  RH  025%=      5-min Rain = 0
KHES 180040Z 19008KT 19/M01 A2983 RMK A01 T01941006  RH  026%=      5-min Rain = 0
KHES 180045Z 19008KT 19/M01 A2983 RMK A01 T01911005  RH  027%=      5-min Rain = 0
KHES 180050Z 18008KT 19/M00 A2983 RMK A01 T01871003  RH  028%=      5-min Rain = 0
KHES 180055Z 18007KT 18/M00 A2983 RMK A01 T01841002  RH  029%=      5-min Rain = 0
KHES 180100Z 18007KT 18/M00 A2983 RMK A01 T01801001  RH  030%=      5-min Rain = 0
KHES 180105Z 18008KT 18/00 A2983 RMK A01 T01770000  RH  031%=      5-min Rain = 0
KHES 180110Z 18008KT 18/00 A2983 RMK A01 T01760000  RH  031%=      5-min Rain = 0
KHES 180115Z 18007KT 17/00 A2983 RMK A01 T01730002  RH  032%=      5-min Rain = 0
KHES 180120Z 17008KT 17/00 A2983 RMK A01 T01720003  RH  032%=      5-min Rain = 0
KHES 180125Z 18008KT 17/00 A2983 RMK A01 T01710004  RH  033%=      5-min Rain = 0
KHES 180130Z 18008KT 17/01 A2983 RMK A01 T01710006  RH  033%=      5-min Rain = 0
KHES 180135Z 18008KT 17/01 A2983 RMK A01 T01670008  RH  034%=      5-min Rain = 0
KHES 180140Z 18008KT 17/01 A2983 RMK A01 T01680008  RH  034%=      5-min Rain = 0
KHES 180145Z 18008KT 17/01 A2983 RMK A01 T01660009  RH  035%=      5-min Rain = 0
KHES 180150Z 18009KT 17/01 A2983 RMK A01 T01650010  RH  036%=      5-min Rain = 0
KHES 180155Z 18008KT 16/01 A2983 RMK A01 T01630012  RH  037%=      5-min Rain = 0
KHES 180200Z 17008KT 16/01 A2983 RMK A01 T01610014  RH  037%=      5-min Rain = 0
KHES 180205Z 17008KT 16/02 A2983 RMK A01 T01580016  RH  039%=      5-min Rain = 0
KHES 180210Z 18008KT 16/02 A2983 RMK A01 T01550018  RH  040%=      5-min Rain = 0
KHES 180215Z 18008KT 15/02 A2983 RMK A01 T01530019  RH  041%=      5-min Rain = 0
KHES 180220Z 18009KT 15/02 A2983 RMK A01 T01530020  RH  041%=      5-min Rain = 0
KHES 180225Z 18008KT 15/02 A2983 RMK A01 T01530021  RH  041%=      5-min Rain = 0
KHES 180230Z 18007KT 15/02 A2983 RMK A01 T01500022  RH  043%=      5-min Rain = 0
KHES 180235Z 18008KT 15/02 A2983 RMK A01 T01510022  RH  043%=      5-min Rain = 0
KHES 180240Z 18009KT 15/02 A2984 RMK A01 T01520022  RH  042%=      5-min Rain = 0
KHES 180245Z 18009KT 16/02 A2984 RMK A01 T01560023  RH  041%=      5-min Rain = 0
KHES 180250Z 18009KT 16/02 A2984 RMK A01 T01580023  RH  041%=      5-min Rain = 0
KHES 180255Z 18010KT 16/02 A2983 RMK A01 T01600023  RH  040%=      5-min Rain = 0
KHES 180300Z 18010KT 16/02 A2983 RMK A01 T01590024  RH  041%=      5-min Rain = 0
KHES 180305Z 18010KT 16/02 A2984 RMK A01 T01590024  RH  041%=      5-min Rain = 0
KHES 180310Z 18009KT 16/03 A2984 RMK A01 T01560025  RH  042%=      5-min Rain = 0
KHES 180315Z 18008KT 15/03 A2984 RMK A01 T01540025  RH  043%=      5-min Rain = 0
KHES 180320Z 18009KT 15/03 A2984 RMK A01 T01510026  RH  043%=      5-min Rain = 0
KHES 180325Z 18009KT 15/03 A2984 RMK A01 T01480026  RH  045%=      5-min Rain = 0
KHES 180330Z 18008KT 14/03 A2984 RMK A01 T01430027  RH  046%=      5-min Rain = 0
KHES 180335Z 18008KT 14/03 A2984 RMK A01 T01400028  RH  047%=      5-min Rain = 0
KHES 180340Z 18008KT 14/03 A2984 RMK A01 T01380028  RH  048%=      5-min Rain = 0
KHES 180345Z 18008KT 14/03 A2984 RMK A01 T01370028  RH  048%=      5-min Rain = 0
KHES 180350Z 17008KT 14/03 A2984 RMK A01 T01360028  RH  049%=      5-min Rain = 0
KHES 180355Z 17008KT 13/03 A2984 RMK A01 T01340028  RH  049%=      5-min Rain = 0
KHES 180400Z 17008KT 13/03 A2984 RMK A01 T01340028  RH  050%=      5-min Rain = 0
KHES 180405Z 18008KT 14/03 A2984 RMK A01 T01350028  RH  049%=      5-min Rain = 0
KHES 180410Z 18008KT 13/03 A2984 RMK A01 T01340028  RH  049%=      5-min Rain = 0
KHES 180415Z 18009KT 14/03 A2984 RMK A01 T01350028  RH  049%=      5-min Rain = 0
KHES 180420Z 18009KT 14/03 A2984 RMK A01 T01380028  RH  048%=      5-min Rain = 0
KHES 180425Z 18010G15KT 14/03 A2984 RMK A01 T01380028  RH  048%=      5-min Rain = 0
KHES 180430Z 19009KT 14/03 A2984 RMK A01 T01390028  RH  048%=      5-min Rain = 0
KHES 180435Z 19010KT 14/03 A2984 RMK A01 T01390027  RH  048%=      5-min Rain = 0
KHES 180440Z 19010KT 14/03 A2984 RMK A01 T01410028  RH  047%=      5-min Rain = 0
KHES 180445Z 18010KT 14/03 A2984 RMK A01 T01400028  RH  048%=      5-min Rain = 0
KHES 180450Z 18009KT 14/03 A2984 RMK A01 T01370029  RH  049%=      5-min Rain = 0
KHES 180455Z 18009KT 14/03 A2984 RMK A01 T01350029  RH  050%=      5-min Rain = 0

Page generated in 0.0215 seconds.